Time;durP1;ratioP1;P1;durP2;ratioP2;P2;SDS_P1;SDS_P2;PMS_P1;PMS_P2;Temp;Humidity;BMP_temperature;BMP_pressure;BME280_temperature;BME280_humidity;BME280_pressure;Samples;Min_cycle;Max_cycle;Signal;HPM_P1;HPM_P2
2021/10/04 00:00:32;;;;;;;9.20;1.77;;;;;;;;;;5062615;28;20559;-68
2021/10/04 00:02:58;;;;;;;3.20;1.50;;;;;;;;;;5064168;28;20060;-68
2021/10/04 00:05:25;;;;;;;8.95;1.67;;;;;;;;;;5059822;28;20040;-68
2021/10/04 00:07:52;;;;;;;7.95;1.30;;;;;;;;;;5062378;28;20561;-66
2021/10/04 00:10:18;;;;;;;13.40;2.00;;;;;;;;;;5062177;28;20126;-67
2021/10/04 00:12:45;;;;;;;8.77;1.77;;;;;;;;;;5063198;28;20361;-67
2021/10/04 00:15:13;;;;;;;6.90;1.80;;;;;;;;;;5065538;28;20045;-67
2021/10/04 00:17:40;;;;;;;3.63;1.65;;;;;;;;;;5063261;28;20136;-67
2021/10/04 00:20:08;;;;;;;2.60;1.30;;;;;;;;;;5060628;28;20058;-67
2021/10/04 00:22:34;;;;;;;6.22;1.73;;;;;;;;;;5057593;28;20044;-67
2021/10/04 00:25:01;;;;;;;4.07;1.67;;;;;;;;;;5058495;28;20044;-67
2021/10/04 00:27:28;;;;;;;6.10;1.95;;;;;;;;;;5059186;28;20338;-67
2021/10/04 00:29:54;;;;;;;5.68;1.60;;;;;;;;;;5062036;28;20087;-67
2021/10/04 00:32:21;;;;;;;5.03;2.17;;;;;;;;;;5061390;28;20160;-67
2021/10/04 00:34:47;;;;;;;10.85;1.80;;;;;;;;;;5061736;28;20135;-66
2021/10/04 00:37:14;;;;;;;9.75;1.92;;;;;;;;;;5064350;28;20076;-67
2021/10/04 00:39:40;;;;;;;5.40;1.38;;;;;;;;;;5060902;28;20064;-67
2021/10/04 00:42:06;;;;;;;7.72;1.98;;;;;;;;;;5059792;28;20087;-66
2021/10/04 00:44:34;;;;;;;8.35;1.90;;;;;;;;;;5063813;28;20132;-66
2021/10/04 00:47:00;;;;;;;4.57;2.10;;;;;;;;;;5058237;28;20068;-66
2021/10/04 00:49:27;;;;;;;6.28;1.55;;;;;;;;;;5058182;28;20123;-66
2021/10/04 00:51:53;;;;;;;5.60;1.70;;;;;;;;;;5060636;28;20127;-66
2021/10/04 00:54:20;;;;;;;6.95;1.67;;;;;;;;;;5068043;28;20096;-66
2021/10/04 00:56:46;;;;;;;7.30;1.80;;;;;;;;;;5068544;28;20766;-66
2021/10/04 00:59:13;;;;;;;4.65;1.80;;;;;;;;;;5066469;28;20135;-66
2021/10/04 01:01:39;;;;;;;3.25;1.88;;;;;;;;;;5065829;28;20090;-66
2021/10/04 01:04:06;;;;;;;5.85;1.70;;;;;;;;;;5067028;28;20175;-66
2021/10/04 01:06:32;;;;;;;6.77;1.43;;;;;;;;;;5066419;28;20049;-66
2021/10/04 01:08:59;;;;;;;9.43;1.77;;;;;;;;;;5063637;28;20306;-66
2021/10/04 01:11:25;;;;;;;12.07;2.20;;;;;;;;;;5063006;28;20064;-66
2021/10/04 01:13:52;;;;;;;7.43;1.87;;;;;;;;;;5061563;28;20131;-66
2021/10/04 01:16:19;;;;;;;7.00;1.70;;;;;;;;;;5065996;28;20143;-66
2021/10/04 01:18:46;;;;;;;12.68;2.10;;;;;;;;;;5065868;28;20409;-66
2021/10/04 01:21:12;;;;;;;5.88;1.88;;;;;;;;;;5064684;28;20041;-66
2021/10/04 01:23:39;;;;;;;8.95;1.98;;;;;;;;;;5065246;28;20052;-66
2021/10/04 01:26:06;;;;;;;8.43;1.85;;;;;;;;;;5067595;28;20055;-66
2021/10/04 01:28:33;;;;;;;6.33;1.70;;;;;;;;;;5065611;28;20504;-66
2021/10/04 01:30:59;;;;;;;10.27;2.08;;;;;;;;;;5062329;28;20128;-66
2021/10/04 01:33:26;;;;;;;6.55;1.90;;;;;;;;;;5066062;28;20051;-66
2021/10/04 01:35:52;;;;;;;7.07;1.80;;;;;;;;;;5066562;28;20152;-66
2021/10/04 01:38:18;;;;;;;6.78;1.98;;;;;;;;;;5065781;28;20084;-66
2021/10/04 01:40:45;;;;;;;5.55;1.98;;;;;;;;;;5061906;28;20080;-66
2021/10/04 01:43:12;;;;;;;11.38;2.15;;;;;;;;;;5063148;28;20547;-66
2021/10/04 01:45:39;;;;;;;6.32;2.20;;;;;;;;;;5065777;28;20124;-67
2021/10/04 01:48:05;;;;;;;12.93;2.22;;;;;;;;;;5064089;28;20140;-66
2021/10/04 01:50:33;;;;;;;7.00;2.10;;;;;;;;;;5066562;28;20044;-66
2021/10/04 01:52:59;;;;;;;;;;;;;;;;;;5066060;28;20147;-67
2021/10/04 01:55:26;;;;;;;4.40;2.10;;;;;;;;;;5064997;28;20387;-66
2021/10/04 01:57:53;;;;;;;13.75;2.83;;;;;;;;;;5067198;28;20139;-66
2021/10/04 02:00:20;;;;;;;12.25;2.40;;;;;;;;;;5062926;28;20273;-66
2021/10/04 02:02:49;;;;;;;10.02;2.42;;;;;;;;;;5060510;28;20048;-66
2021/10/04 02:05:19;;;;;;;7.25;2.45;;;;;;;;;;5061504;28;20630;-66
2021/10/04 02:07:46;;;;;;;13.85;2.67;;;;;;;;;;5063187;28;20127;-67
2021/10/04 02:10:15;;;;;;;6.00;2.60;;;;;;;;;;5064739;28;20072;-67
2021/10/04 02:12:42;;;;;;;9.82;2.58;;;;;;;;;;5063856;28;20075;-66
2021/10/04 02:15:09;;;;;;;8.45;2.10;;;;;;;;;;5065315;28;20130;-66
2021/10/04 02:17:35;;;;;;;10.50;2.55;;;;;;;;;;5062111;28;20400;-66
2021/10/04 02:20:04;;;;;;;12.93;3.35;;;;;;;;;;5064747;28;20139;-66
2021/10/04 02:22:30;;;;;;;8.77;2.90;;;;;;;;;;5063684;28;20144;-67
2021/10/04 02:24:56;;;;;;;14.88;3.05;;;;;;;;;;5062734;28;20514;-66
2021/10/04 02:27:23;;;;;;;7.07;2.53;;;;;;;;;;5062975;28;20132;-66
2021/10/04 02:29:50;;;;;;;15.07;3.17;;;;;;;;;;5057459;28;20330;-66
2021/10/04 02:32:16;;;;;;;9.63;2.40;;;;;;;;;;5063403;28;20132;-67
2021/10/04 02:34:43;;;;;;;8.13;2.55;;;;;;;;;;5065655;28;20563;-66
2021/10/04 02:37:10;;;;;;;11.15;3.00;;;;;;;;;;5063768;28;20136;-66
2021/10/04 02:39:36;;;;;;;14.77;3.05;;;;;;;;;;5062669;28;20048;-66
2021/10/04 02:42:03;;;;;;;10.67;2.97;;;;;;;;;;5064009;28;20068;-66
2021/10/04 02:44:29;;;;;;;14.68;2.92;;;;;;;;;;5063734;28;20131;-67
2021/10/04 02:46:56;;;;;;;7.82;2.72;;;;;;;;;;5064574;28;20068;-66
2021/10/04 02:49:22;;;;;;;6.03;3.03;;;;;;;;;;5060860;28;20139;-69
2021/10/04 02:51:49;;;;;;;11.18;3.03;;;;;;;;;;5059419;28;20422;-67
2021/10/04 02:54:15;;;;;;;11.25;3.10;;;;;;;;;;5064889;28;20320;-66
2021/10/04 02:56:42;;;;;;;6.87;2.63;;;;;;;;;;5063949;28;20076;-66
2021/10/04 02:59:11;;;;;;;8.45;2.78;;;;;;;;;;5063521;28;20693;-66
2021/10/04 03:01:37;;;;;;;9.00;3.03;;;;;;;;;;5061769;28;20424;-66
2021/10/04 03:04:04;;;;;;;14.67;3.27;;;;;;;;;;5061351;28;20052;-67
2021/10/04 03:06:30;;;;;;;15.32;3.00;;;;;;;;;;5063566;28;20124;-66
2021/10/04 03:08:56;;;;;;;13.40;3.00;;;;;;;;;;5061558;28;20496;-66
2021/10/04 03:11:23;;;;;;;18.58;3.22;;;;;;;;;;5063292;28;20102;-66
2021/10/04 03:13:50;;;;;;;14.02;3.00;;;;;;;;;;5067453;28;20488;-67
2021/10/04 03:16:16;;;;;;;16.00;3.28;;;;;;;;;;5060303;28;20567;-67
2021/10/04 03:18:43;;;;;;;12.57;3.13;;;;;;;;;;5060976;28;20063;-66
2021/10/04 03:21:09;;;;;;;14.85;3.67;;;;;;;;;;5060369;28;20526;-66
2021/10/04 03:23:35;;;;;;;8.38;2.83;;;;;;;;;;5060084;28;20621;-66
2021/10/04 03:26:02;;;;;;;10.65;3.40;;;;;;;;;;5058524;28;20098;-67
2021/10/04 03:28:29;;;;;;;11.93;3.25;;;;;;;;;;5062394;28;20494;-66
2021/10/04 03:30:55;;;;;;;11.20;3.15;;;;;;;;;;5063301;28;20143;-66
2021/10/04 03:33:21;;;;;;;13.32;3.63;;;;;;;;;;5065281;28;20519;-66
2021/10/04 03:35:48;;;;;;;10.57;3.00;;;;;;;;;;5062317;28;20510;-66
2021/10/04 03:38:14;;;;;;;11.98;3.53;;;;;;;;;;5064694;28;20191;-67
2021/10/04 03:40:41;;;;;;;11.82;2.80;;;;;;;;;;5063983;28;20131;-66
2021/10/04 03:43:07;;;;;;;17.80;3.38;;;;;;;;;;5062940;28;20065;-68
2021/10/04 03:45:33;;;;;;;12.50;3.33;;;;;;;;;;5060715;28;20124;-68
2021/10/04 03:48:00;;;;;;;15.85;3.25;;;;;;;;;;5057854;28;20094;-67
2021/10/04 03:50:27;;;;;;;12.90;3.35;;;;;;;;;;5064946;28;20041;-67
2021/10/04 03:52:53;;;;;;;18.02;3.70;;;;;;;;;;5061202;28;20614;-67
2021/10/04 03:55:20;;;;;;;14.77;3.38;;;;;;;;;;5063238;28;20087;-67
2021/10/04 03:57:46;;;;;;;12.30;3.90;;;;;;;;;;5061204;28;20043;-67
2021/10/04 04:00:15;;;;;;;13.13;3.00;;;;;;;;;;5060767;28;20136;-67
2021/10/04 04:02:42;;;;;;;11.93;3.10;;;;;;;;;;5061951;28;20076;-67
2021/10/04 04:05:09;;;;;;;22.43;3.93;;;;;;;;;;5064642;28;20048;-68
2021/10/04 04:07:35;;;;;;;17.17;3.47;;;;;;;;;;5063806;28;20299;-67
2021/10/04 04:10:06;;;;;;;18.63;3.85;;;;;;;;;;5057479;28;20131;-68
2021/10/04 04:12:33;;;;;;;17.90;4.22;;;;;;;;;;5059053;28;20080;-68
2021/10/04 04:14:59;;;;;;;18.57;3.40;;;;;;;;;;5055321;28;20413;-68
2021/10/04 04:17:26;;;;;;;13.57;3.30;;;;;;;;;;5061230;28;20380;-67
2021/10/04 04:19:53;;;;;;;15.65;3.47;;;;;;;;;;5063434;28;20136;-68
2021/10/04 04:22:19;;;;;;;15.38;3.97;;;;;;;;;;5064658;28;20072;-67
2021/10/04 04:24:45;;;;;;;17.30;3.33;;;;;;;;;;5060568;28;20110;-67
2021/10/04 04:27:12;;;;;;;14.18;3.90;;;;;;;;;;5060159;28;20435;-68
2021/10/04 04:29:39;;;;;;;18.02;4.30;;;;;;;;;;5065345;28;20086;-68
2021/10/04 04:32:06;;;;;;;13.45;3.80;;;;;;;;;;5065283;28;20072;-67
2021/10/04 04:34:33;;;;;;;;;;;;;;;;;;5065542;28;20048;-67
2021/10/04 04:36:59;;;;;;;18.75;4.03;;;;;;;;;;5061871;28;19952;-68
2021/10/04 04:39:27;;;;;;;22.65;4.03;;;;;;;;;;5061041;28;20072;-68
2021/10/04 04:41:54;;;;;;;11.30;3.15;;;;;;;;;;5066505;28;20135;-68
2021/10/04 04:44:21;;;;;;;13.02;3.90;;;;;;;;;;5071357;28;20135;-68
2021/10/04 04:46:47;;;;;;;25.98;4.35;;;;;;;;;;5068263;28;20072;-68
2021/10/04 04:49:14;;;;;;;21.73;4.65;;;;;;;;;;5068104;28;20044;-68
2021/10/04 04:51:40;;;;;;;23.58;4.28;;;;;;;;;;5063863;28;20143;-67
2021/10/04 04:54:07;;;;;;;25.95;4.90;;;;;;;;;;5068435;28;20139;-68
2021/10/04 04:56:33;;;;;;;16.88;3.80;;;;;;;;;;5063630;28;20123;-68
2021/10/04 04:59:00;;;;;;;15.20;4.30;;;;;;;;;;5068614;28;20486;-68
2021/10/04 05:01:27;;;;;;;17.42;4.82;;;;;;;;;;5064938;28;20135;-68
2021/10/04 05:03:53;;;;;;;13.07;4.07;;;;;;;;;;5067333;28;20396;-68
2021/10/04 05:06:20;;;;;;;18.55;4.53;;;;;;;;;;5063104;28;20622;-68
2021/10/04 05:08:46;;;;;;;25.37;5.80;;;;;;;;;;5067977;28;20148;-68
2021/10/04 05:11:13;;;;;;;16.77;4.68;;;;;;;;;;5064945;28;20079;-68
2021/10/04 05:13:39;;;;;;;30.05;5.65;;;;;;;;;;5064780;28;20515;-68
2021/10/04 05:16:12;;;;;;;20.80;5.40;;;;;;;;;;5067988;28;20060;-68
2021/10/04 05:18:39;;;;;;;22.88;5.53;;;;;;;;;;5065858;28;20053;-68
2021/10/04 05:21:05;;;;;;;16.98;5.25;;;;;;;;;;5068367;28;20141;-68
2021/10/04 05:23:32;;;;;;;25.10;6.00;;;;;;;;;;5071040;28;20083;-68
2021/10/04 05:25:59;;;;;;;21.95;6.18;;;;;;;;;;5065247;28;20079;-68
2021/10/04 05:28:25;;;;;;;21.75;6.07;;;;;;;;;;5057846;28;20553;-68
2021/10/04 05:30:52;;;;;;;28.42;6.57;;;;;;;;;;5064729;28;20469;-68
2021/10/04 05:33:18;;;;;;;31.15;7.38;;;;;;;;;;5064633;28;20044;-68
2021/10/04 05:35:46;;;;;;;23.00;6.25;;;;;;;;;;5066145;28;20139;-68
2021/10/04 05:38:13;;;;;;;23.85;6.35;;;;;;;;;;5061785;28;20077;-68
2021/10/04 05:40:39;;;;;;;27.35;6.85;;;;;;;;;;5064990;28;20133;-68
2021/10/04 05:43:06;;;;;;;22.07;6.93;;;;;;;;;;5065201;28;20636;-68
2021/10/04 05:45:32;;;;;;;27.10;6.40;;;;;;;;;;5064597;28;20337;-68
2021/10/04 05:47:58;;;;;;;23.48;5.97;;;;;;;;;;5064556;28;20152;-68
2021/10/04 05:50:26;;;;;;;23.08;5.65;;;;;;;;;;5065503;28;20084;-68
2021/10/04 05:52:52;;;;;;;15.68;5.70;;;;;;;;;;5062422;28;20460;-68
2021/10/04 05:55:19;;;;;;;27.83;7.05;;;;;;;;;;5063305;28;20098;-68
2021/10/04 05:57:47;;;;;;;29.30;6.60;;;;;;;;;;5066210;28;20072;-68
2021/10/04 06:00:14;;;;;;;32.13;6.75;;;;;;;;;;5063548;28;20472;-68
2021/10/04 06:02:40;;;;;;;29.15;6.97;;;;;;;;;;5062862;28;20666;-68
2021/10/04 06:05:08;;;;;;;;;;;;;;;;;;5066094;28;20094;-68
2021/10/04 06:07:35;;;;;;;34.67;6.50;;;;;;;;;;5063086;28;19966;-68
2021/10/04 06:10:02;;;;;;;31.30;7.55;;;;;;;;;;5066235;28;20079;-68
2021/10/04 06:12:28;;;;;;;31.85;6.80;;;;;;;;;;5066236;28;20084;-68
2021/10/04 06:14:55;;;;;;;24.70;5.85;;;;;;;;;;5067959;28;20143;-68
2021/10/04 06:17:22;;;;;;;36.35;7.47;;;;;;;;;;5065597;28;20141;-69
2021/10/04 06:19:49;;;;;;;24.23;6.27;;;;;;;;;;5060635;28;20052;-68
2021/10/04 06:22:15;;;;;;;20.00;6.17;;;;;;;;;;5068638;28;20318;-68
2021/10/04 06:24:42;;;;;;;28.67;6.40;;;;;;;;;;5062493;28;20473;-68
2021/10/04 06:27:08;;;;;;;36.33;6.87;;;;;;;;;;5054938;28;20135;-68
2021/10/04 06:29:35;;;;;;;31.00;6.55;;;;;;;;;;5064430;28;20559;-68
2021/10/04 06:32:01;;;;;;;29.70;5.75;;;;;;;;;;5067865;28;20064;-68
2021/10/04 06:34:29;;;;;;;;;;;;;;;;;;5060609;28;20139;-68
2021/10/04 06:36:55;;;;;;;34.38;6.55;;;;;;;;;;5064098;28;20440;-68
2021/10/04 06:39:22;;;;;;;31.67;5.50;;;;;;;;;;5066531;28;20083;-68
2021/10/04 06:41:48;;;;;;;27.37;6.30;;;;;;;;;;5065368;28;20136;-68
2021/10/04 06:44:15;;;;;;;39.45;6.25;;;;;;;;;;5056911;28;20147;-68
2021/10/04 06:46:57;;;;;;;38.95;6.53;;;;;;;;;;5056216;28;20045;-68
2021/10/04 06:49:28;;;;;;;25.80;5.70;;;;;;;;;;5059033;28;20058;-69
2021/10/04 06:51:54;;;;;;;23.33;5.35;;;;;;;;;;5064557;28;20100;-68
2021/10/04 06:54:21;;;;;;;30.85;5.82;;;;;;;;;;5065632;28;20131;-68
2021/10/04 06:56:48;;;;;;;37.57;7.10;;;;;;;;;;5064411;28;20135;-68
2021/10/04 06:59:15;;;;;;;37.90;6.45;;;;;;;;;;5062894;28;20505;-68
2021/10/04 07:01:41;;;;;;;28.45;5.60;;;;;;;;;;5064566;28;20137;-68
2021/10/04 07:04:08;;;;;;;28.40;6.30;;;;;;;;;;5067322;28;20056;-68
2021/10/04 07:06:35;;;;;;;30.88;5.88;;;;;;;;;;5061944;28;20088;-68
2021/10/04 07:09:05;;;;;;;32.67;6.53;;;;;;;;;;5058281;28;20136;-68
2021/10/04 07:11:32;;;;;;;35.83;6.03;;;;;;;;;;5064097;28;20205;-68
2021/10/04 07:13:58;;;;;;;35.30;5.60;;;;;;;;;;5061876;28;20072;-68
2021/10/04 07:16:25;;;;;;;45.58;6.22;;;;;;;;;;5065903;28;20108;-69
2021/10/04 07:18:52;;;;;;;41.80;5.97;;;;;;;;;;5065765;28;20049;-68
2021/10/04 07:21:18;;;;;;;30.93;5.00;;;;;;;;;;5066618;28;20395;-68
2021/10/04 07:23:45;;;;;;;39.53;6.28;;;;;;;;;;5062862;28;20135;-68
2021/10/04 07:26:13;;;;;;;39.50;5.97;;;;;;;;;;5060240;28;20041;-68
2021/10/04 07:28:39;;;;;;;28.65;5.38;;;;;;;;;;5063397;28;20083;-68
2021/10/04 07:31:07;;;;;;;32.75;5.15;;;;;;;;;;5063748;28;20053;-68
2021/10/04 07:33:34;;;;;;;40.65;5.82;;;;;;;;;;5064349;28;20410;-68
2021/10/04 07:36:02;;;;;;;45.35;5.38;;;;;;;;;;5055814;28;20127;-68
2021/10/04 07:38:28;;;;;;;34.50;5.32;;;;;;;;;;5055610;28;20099;-68
2021/10/04 07:40:55;;;;;;;45.33;6.80;;;;;;;;;;5057729;28;20834;-68
2021/10/04 07:43:21;;;;;;;27.75;4.97;;;;;;;;;;5065065;28;20072;-68
2021/10/04 07:45:48;;;;;;;36.20;5.07;;;;;;;;;;5062473;28;20136;-68
2021/10/04 07:48:15;;;;;;;43.92;5.03;;;;;;;;;;5059258;28;20098;-68
2021/10/04 07:50:44;;;;;;;34.25;5.10;;;;;;;;;;5059471;28;20080;-68
2021/10/04 07:53:11;;;;;;;34.20;4.90;;;;;;;;;;5066645;28;20087;-68
2021/10/04 07:55:39;;;;;;;39.33;5.88;;;;;;;;;;5063675;28;20504;-67
2021/10/04 07:58:05;;;;;;;;;;;;;;;;;;5064807;28;20132;-68
2021/10/04 08:00:32;;;;;;;39.63;4.57;;;;;;;;;;5066947;28;19924;-68
2021/10/04 08:03:00;;;;;;;27.05;4.20;;;;;;;;;;5060093;28;20053;-68
2021/10/04 08:05:26;;;;;;;34.70;5.20;;;;;;;;;;5065013;28;20102;-68
2021/10/04 08:07:53;;;;;;;33.90;5.40;;;;;;;;;;5056959;28;20131;-67
2021/10/04 08:10:19;;;;;;;39.42;5.85;;;;;;;;;;5061477;28;20535;-68
2021/10/04 08:12:46;;;;;;;33.47;5.05;;;;;;;;;;5064429;28;20037;-68
2021/10/04 08:15:12;;;;;;;31.73;5.30;;;;;;;;;;5064181;28;20075;-68
2021/10/04 08:17:39;;;;;;;29.30;5.23;;;;;;;;;;5065751;28;20087;-68
2021/10/04 08:20:10;;;;;;;34.43;5.07;;;;;;;;;;5064757;28;20087;-67
2021/10/04 08:22:37;;;;;;;30.65;5.00;;;;;;;;;;5061884;28;20391;-68
2021/10/04 08:25:05;;;;;;;23.63;4.18;;;;;;;;;;5061725;28;20153;-68
2021/10/04 08:27:31;;;;;;;29.13;4.50;;;;;;;;;;5063681;28;20127;-67
2021/10/04 08:29:58;;;;;;;34.33;4.53;;;;;;;;;;5063996;28;20080;-68
2021/10/04 08:32:24;;;;;;;32.93;4.10;;;;;;;;;;5057521;28;20079;-67
2021/10/04 08:34:51;;;;;;;28.60;5.90;;;;;;;;;;5061199;28;20501;-67
2021/10/04 08:37:21;;;;;;;31.95;4.68;;;;;;;;;;5061305;28;20091;-67
2021/10/04 08:39:48;;;;;;;32.92;4.97;;;;;;;;;;5062642;28;20139;-67
2021/10/04 08:42:15;;;;;;;30.05;4.88;;;;;;;;;;5061575;28;20080;-68
2021/10/04 08:44:41;;;;;;;23.20;5.15;;;;;;;;;;5059885;28;20571;-67
2021/10/04 08:47:08;;;;;;;42.20;5.43;;;;;;;;;;5060493;28;20087;-67
2021/10/04 08:49:34;;;;;;;20.88;4.10;;;;;;;;;;5061160;28;20099;-68
2021/10/04 08:52:02;;;;;;;26.50;4.28;;;;;;;;;;5061796;28;20127;-67
2021/10/04 08:54:29;;;;;;;26.20;4.70;;;;;;;;;;5066995;28;20127;-67
2021/10/04 08:56:57;;;;;;;23.70;4.70;;;;;;;;;;5057799;28;20461;-67
2021/10/04 08:59:23;;;;;;;26.23;4.93;;;;;;;;;;5062410;28;20139;-67
2021/10/04 09:01:50;;;;;;;28.55;4.13;;;;;;;;;;5065007;28;20076;-67
2021/10/04 09:04:20;;;;;;;26.75;4.63;;;;;;;;;;5061665;28;20053;-67
2021/10/04 09:06:46;;;;;;;36.75;4.28;;;;;;;;;;5063164;28;20096;-67
2021/10/04 09:09:14;;;;;;;29.10;4.50;;;;;;;;;;5061600;28;20131;-67
2021/10/04 09:11:40;;;;;;;;;;;;;;;;;;5060498;28;20058;-67
2021/10/04 09:14:15;;;;;;;26.05;3.70;;;;;;;;;;5067031;28;20015;-68
2021/10/04 09:16:54;;;;;;;29.92;3.90;;;;;;;;;;5068546;28;20084;-68
2021/10/04 09:19:22;;;;;;;28.00;4.13;;;;;;;;;;5066575;28;20049;-67
2021/10/04 09:22:00;;;;;;;17.60;3.67;;;;;;;;;;5061932;28;20115;-67
2021/10/04 09:24:31;;;;;;;23.48;3.95;;;;;;;;;;5063389;28;20048;-68
2021/10/04 09:26:58;;;;;;;30.45;4.35;;;;;;;;;;5064172;28;20087;-68
2021/10/04 09:29:25;;;;;;;28.95;4.22;;;;;;;;;;5067319;28;20155;-67
2021/10/04 09:31:51;;;;;;;21.63;3.42;;;;;;;;;;5066586;28;20091;-67
2021/10/04 09:34:20;;;;;;;21.50;3.90;;;;;;;;;;5064596;28;20053;-67
2021/10/04 09:36:47;;;;;;;;;;;;;;;;;;5063590;28;20106;-67
2021/10/04 09:39:33;;;;;;;21.50;4.07;;;;;;;;;;5070309;28;20019;-67
2021/10/04 09:42:07;;;;;;;24.50;3.85;;;;;;;;;;5065041;28;20052;-67
2021/10/04 09:44:51;;;;;;;26.40;3.45;;;;;;;;;;5062523;28;20140;-67
2021/10/04 09:47:22;;;;;;;20.48;3.90;;;;;;;;;;5062556;28;20389;-67
2021/10/04 09:49:49;;;;;;;24.67;4.13;;;;;;;;;;5067234;28;20079;-68
2021/10/04 09:52:15;;;;;;;19.73;4.80;;;;;;;;;;5067682;28;20131;-67
2021/10/04 09:54:46;;;;;;;18.67;3.72;;;;;;;;;;5065791;28;20080;-67
2021/10/04 09:57:16;;;;;;;14.48;3.28;;;;;;;;;;5062253;28;20475;-67
2021/10/04 09:59:43;;;;;;;18.25;3.65;;;;;;;;;;5062161;28;20139;-67
2021/10/04 10:02:10;;;;;;;20.95;3.53;;;;;;;;;;5065379;28;20084;-67
2021/10/04 10:04:37;;;;;;;15.23;3.00;;;;;;;;;;5068726;28;20507;-68
2021/10/04 10:07:06;;;;;;;21.67;3.38;;;;;;;;;;5063134;28;20148;-67
2021/10/04 10:09:34;;;;;;;19.95;3.15;;;;;;;;;;5064104;28;20482;-68
2021/10/04 10:12:01;;;;;;;19.70;2.95;;;;;;;;;;5060844;28;20110;-67
2021/10/04 10:14:36;;;;;;;21.98;3.45;;;;;;;;;;5059605;28;20080;-67
2021/10/04 10:17:03;;;;;;;14.35;3.00;;;;;;;;;;5061591;28;20141;-67
2021/10/04 10:19:31;;;;;;;21.58;4.00;;;;;;;;;;5066669;28;20594;-67
2021/10/04 10:22:11;;;;;;;21.60;3.17;;;;;;;;;;5062314;28;20043;-68
2021/10/04 10:24:39;;;;;;;25.63;3.67;;;;;;;;;;5064296;28;20473;-67
2021/10/04 10:27:05;;;;;;;27.35;3.63;;;;;;;;;;5067161;28;20084;-67
2021/10/04 10:29:32;;;;;;;14.63;2.72;;;;;;;;;;5061409;28;20159;-67
2021/10/04 10:31:58;;;;;;;13.02;2.40;;;;;;;;;;5060998;28;20056;-67
2021/10/04 10:34:38;;;;;;;14.02;2.85;;;;;;;;;;5059406;28;20075;-67
2021/10/04 10:37:08;;;;;;;15.85;2.97;;;;;;;;;;5063336;28;20063;-67
2021/10/04 10:39:37;;;;;;;16.40;2.97;;;;;;;;;;5062589;28;20595;-67
2021/10/04 10:42:12;;;;;;;14.70;3.00;;;;;;;;;;5064629;28;20080;-67
2021/10/04 10:44:54;;;;;;;11.80;2.92;;;;;;;;;;5062343;28;20080;-67
2021/10/04 10:47:36;;;;;;;14.30;3.22;;;;;;;;;;5065731;28;20056;-67
2021/10/04 10:50:11;;;;;;;18.30;3.42;;;;;;;;;;5064667;28;20520;-67
2021/10/04 10:52:38;;;;;;;12.00;2.90;;;;;;;;;;5063046;28;20447;-67
2021/10/04 10:55:20;;;;;;;18.02;2.97;;;;;;;;;;5066836;28;20091;-67
2021/10/04 10:57:59;;;;;;;20.13;2.92;;;;;;;;;;5060568;28;20080;-67
2021/10/04 11:00:38;;;;;;;18.65;3.00;;;;;;;;;;5065903;28;20075;-67
2021/10/04 11:03:12;;;;;;;21.88;3.10;;;;;;;;;;5055287;28;20098;-66
2021/10/04 11:05:40;;;;;;;18.45;3.92;;;;;;;;;;5058136;28;20111;-67
2021/10/04 11:08:16;;;;;;;17.20;3.03;;;;;;;;;;5064518;28;20102;-67
2021/10/04 11:11:06;;;;;;;14.48;2.67;;;;;;;;;;5062552;28;20109;-66
2021/10/04 11:13:36;;;;;;;17.88;3.50;;;;;;;;;;5054585;28;20044;-67
2021/10/04 11:16:10;;;;;;;21.38;2.97;;;;;;;;;;5062540;28;20139;-66
2021/10/04 11:18:38;;;;;;;17.55;3.00;;;;;;;;;;5067115;28;20106;-67
2021/10/04 11:21:06;;;;;;;20.45;3.63;;;;;;;;;;5057757;28;20135;-67
2021/10/04 11:23:33;;;;;;;;;;;;;;;;;;5064671;28;20079;-67
2021/10/04 11:25:59;;;;;;;24.23;3.88;;;;;;;;;;5060371;28;19971;-67
2021/10/04 11:28:32;;;;;;;15.75;3.28;;;;;;;;;;5064592;28;20049;-66
2021/10/04 11:31:04;;;;;;;18.15;3.20;;;;;;;;;;5060425;28;20072;-67
2021/10/04 11:33:36;;;;;;;19.60;3.00;;;;;;;;;;5057572;28;20123;-67
2021/10/04 11:36:04;;;;;;;27.38;3.70;;;;;;;;;;5060486;28;20080;-67
2021/10/04 11:38:35;;;;;;;21.67;3.92;;;;;;;;;;5065687;28;20076;-66
2021/10/04 11:41:02;;;;;;;10.27;2.70;;;;;;;;;;5064639;28;20131;-66
2021/10/04 11:43:29;;;;;;;15.13;3.45;;;;;;;;;;5062440;28;20170;-67
2021/10/04 11:45:55;;;;;;;21.17;4.28;;;;;;;;;;5064723;28;20454;-67
2021/10/04 11:48:29;;;;;;;16.50;3.92;;;;;;;;;;5064016;28;20131;-66
2021/10/04 11:50:57;;;;;;;17.75;3.65;;;;;;;;;;5066729;28;20475;-67
2021/10/04 11:53:24;;;;;;;17.45;2.83;;;;;;;;;;5068354;28;20135;-67
2021/10/04 11:56:00;;;;;;;18.95;3.30;;;;;;;;;;5062885;28;20048;-66
2021/10/04 11:58:27;;;;;;;14.30;4.03;;;;;;;;;;5061690;28;20556;-66
2021/10/04 12:00:53;;;;;;;15.52;3.67;;;;;;;;;;5054901;28;20480;-67
2021/10/04 12:03:39;;;;;;;20.88;3.75;;;;;;;;;;5061470;28;20076;-67
2021/10/04 12:06:09;;;;;;;18.65;3.60;;;;;;;;;;5061937;28;20048;-66
2021/10/04 12:08:36;;;;;;;15.95;3.17;;;;;;;;;;5062621;28;20472;-66
2021/10/04 12:11:07;;;;;;;15.80;3.88;;;;;;;;;;5061849;28;20080;-67
2021/10/04 12:13:37;;;;;;;16.25;3.60;;;;;;;;;;5056193;28;20045;-67
2021/10/04 12:16:08;;;;;;;18.38;3.38;;;;;;;;;;5061896;28;20087;-67
2021/10/04 12:18:43;;;;;;;19.95;3.75;;;;;;;;;;5063148;28;20076;-67
2021/10/04 12:21:27;;;;;;;20.30;3.10;;;;;;;;;;5062258;28;20103;-67
2021/10/04 12:24:03;;;;;;;22.20;4.20;;;;;;;;;;5059021;28;20103;-66
2021/10/04 12:26:30;;;;;;;15.45;3.10;;;;;;;;;;5061192;28;20079;-67
2021/10/04 12:28:58;;;;;;;15.50;3.63;;;;;;;;;;5059740;28;20127;-67
2021/10/04 12:31:30;;;;;;;13.93;3.33;;;;;;;;;;5063186;28;20072;-67
2021/10/04 12:33:57;;;;;;;24.77;4.30;;;;;;;;;;5061568;28;20149;-67
2021/10/04 12:36:24;;;;;;;16.25;3.33;;;;;;;;;;5061479;28;20072;-66
2021/10/04 12:38:51;;;;;;;23.38;3.55;;;;;;;;;;5063933;28;20075;-67
2021/10/04 12:41:17;;;;;;;19.67;3.30;;;;;;;;;;5063999;28;20155;-67
2021/10/04 12:43:46;;;;;;;16.33;2.67;;;;;;;;;;5057987;28;20079;-67
2021/10/04 12:46:16;;;;;;;16.38;3.33;;;;;;;;;;5066163;28;20707;-67
2021/10/04 12:48:44;;;;;;;13.27;3.42;;;;;;;;;;5060188;28;20051;-66
2021/10/04 12:51:18;;;;;;;22.85;4.05;;;;;;;;;;5060385;28;20045;-67
2021/10/04 12:53:45;;;;;;;11.77;2.90;;;;;;;;;;5065087;28;20137;-67
2021/10/04 12:56:11;;;;;;;15.93;3.60;;;;;;;;;;5066284;28;20073;-66
2021/10/04 12:58:38;;;;;;;15.20;2.90;;;;;;;;;;5068592;28;20131;-67
2021/10/04 13:01:12;;;;;;;11.73;3.10;;;;;;;;;;5062334;28;20584;-66
2021/10/04 13:03:49;;;;;;;20.50;2.65;;;;;;;;;;5065108;28;20052;-67
2021/10/04 13:06:22;;;;;;;12.40;2.85;;;;;;;;;;5062559;28;20063;-66
2021/10/04 13:08:50;;;;;;;15.50;2.95;;;;;;;;;;5072283;28;20476;-66
2021/10/04 13:11:19;;;;;;;14.63;2.97;;;;;;;;;;5056499;28;20128;-67
2021/10/04 13:13:45;;;;;;;21.05;3.97;;;;;;;;;;5065611;28;20128;-67
2021/10/04 13:16:12;;;;;;;15.63;2.80;;;;;;;;;;5063778;28;20481;-67
2021/10/04 13:18:38;;;;;;;11.07;2.53;;;;;;;;;;5062477;28;20056;-67
2021/10/04 13:21:05;;;;;;;16.95;3.10;;;;;;;;;;5064720;28;20076;-66
2021/10/04 13:23:33;;;;;;;11.88;3.22;;;;;;;;;;5064359;28;20072;-67
2021/10/04 13:26:00;;;;;;;12.52;3.13;;;;;;;;;;5066066;28;20057;-66
2021/10/04 13:28:26;;;;;;;18.30;2.92;;;;;;;;;;5064855;28;20128;-67
2021/10/04 13:30:53;;;;;;;18.88;2.80;;;;;;;;;;5070555;28;20079;-67
2021/10/04 13:33:20;;;;;;;23.10;3.45;;;;;;;;;;5062231;28;20076;-67
2021/10/04 13:35:47;;;;;;;21.75;4.05;;;;;;;;;;5059202;28;20141;-67
2021/10/04 13:38:15;;;;;;;15.10;3.92;;;;;;;;;;5062550;28;20135;-66
2021/10/04 13:40:42;;;;;;;21.52;3.97;;;;;;;;;;5066732;28;20144;-67
2021/10/04 13:43:08;;;;;;;19.88;3.55;;;;;;;;;;5066066;28;20072;-66
2021/10/04 13:45:35;;;;;;;12.23;3.20;;;;;;;;;;5061767;28;20145;-66
2021/10/04 13:48:02;;;;;;;15.70;3.40;;;;;;;;;;5063019;28;20138;-66
2021/10/04 13:50:28;;;;;;;14.93;3.25;;;;;;;;;;5064784;28;20266;-67
2021/10/04 13:52:55;;;;;;;15.63;3.60;;;;;;;;;;5066449;28;20168;-66
2021/10/04 13:55:21;;;;;;;14.00;3.40;;;;;;;;;;5058839;28;20140;-67
2021/10/04 13:57:48;;;;;;;12.35;3.58;;;;;;;;;;5065572;28;20076;-66
2021/10/04 14:00:15;;;;;;;18.38;3.40;;;;;;;;;;5059114;28;20135;-67
2021/10/04 14:02:42;;;;;;;15.53;3.90;;;;;;;;;;5065690;28;20150;-66
2021/10/04 14:05:09;;;;;;;25.80;3.88;;;;;;;;;;5064091;28;20131;-67
2021/10/04 14:07:36;;;;;;;14.18;3.72;;;;;;;;;;5055994;28;20505;-67
2021/10/04 14:10:04;;;;;;;14.95;3.75;;;;;;;;;;5066901;28;20568;-66
2021/10/04 14:12:30;;;;;;;;;;;;;;;;;;5064176;28;20478;-67
2021/10/04 14:15:00;;;;;;;14.07;3.45;;;;;;;;;;5069083;28;19924;-66
2021/10/04 14:17:27;;;;;;;21.67;3.83;;;;;;;;;;5065082;28;20084;-66
2021/10/04 14:19:53;;;;;;;19.00;4.40;;;;;;;;;;5064310;28;20143;-66
2021/10/04 14:22:19;;;;;;;18.65;4.03;;;;;;;;;;5062352;28;20164;-67
2021/10/04 14:24:46;;;;;;;19.35;4.25;;;;;;;;;;5067433;28;20085;-66
2021/10/04 14:27:12;;;;;;;15.73;3.78;;;;;;;;;;5061126;28;20433;-66
2021/10/04 14:29:39;;;;;;;28.75;4.38;;;;;;;;;;5058657;28;20091;-67
2021/10/04 14:32:06;;;;;;;20.20;3.45;;;;;;;;;;5067181;28;20124;-67
2021/10/04 14:34:32;;;;;;;17.40;4.25;;;;;;;;;;5068721;28;20060;-66
2021/10/04 14:36:59;;;;;;;15.40;3.60;;;;;;;;;;5063056;28;20068;-66
2021/10/04 14:39:26;;;;;;;16.13;3.88;;;;;;;;;;5066318;28;20148;-67